Terminal Aerodrome Forecast
Issued by NWS Pendleton, OR

Home | Current Version | Previous Version | Text Only | Print | Product List | Glossary On
Versions: 1 2 3 4 5 6 7 8 9 10 11 12 13 14 15 16 17 18 19 20 21
000
FTUS46 KPDT 272000 AAE
TAFPDT
TAF AMD
KPDT 272047Z 2721/2818 31009KT 1/4SM FG OVC002
     FM280000 26008KT 6SM BR BKN010 OVC120
     FM280300 24007KT 3SM BR BKN010 OVC050
     FM281000 20004KT 1SM BR BKN005 OVC050=

USA.gov is the U.S. government's official web portal to all federal, state and local government web resources and services.